Time;durP1;ratioP1;P1;durP2;ratioP2;P2;SDS_P1;SDS_P2;PMS_P1;PMS_P2;Temp;Humidity;BMP_temperature;BMP_pressure;BME280_temperature;BME280_humidity;BME280_pressure;Samples;Min_cycle;Max_cycle;Signal;HPM_P1;HPM_P2
2023/08/09 05:20:11;;;;;;;;;;;;;;;8.71;100.00;99503.31;5315637;22;20362;-86
2023/08/09 05:22:37;;;;;;;;;;;;;;;8.66;100.00;99522.00;5074537;28;19968;-89
2023/08/09 05:25:02;;;;;;;;;;;;;;;8.70;100.00;99517.47;5056042;28;20351;-85
2023/08/09 05:27:28;;;;;;;;;;;;;;;8.67;100.00;99517.59;5074414;28;19921;-83
2023/08/09 05:29:53;;;;;;;;;;;;;;;8.73;100.00;99504.97;5072443;28;19917;-86
2023/08/09 05:32:18;;;;;;;;;;;;;;;8.73;100.00;99507.63;5074304;28;19965;-85
2023/08/09 05:34:44;;;;;;;;;;;;;;;8.77;100.00;99523.34;5071087;28;19983;-84
2023/08/09 05:37:09;;;;;;;;;;;;;;;8.72;100.00;99520.91;5056094;28;20335;-86
2023/08/09 05:39:34;;;;;;;;;;;;;;;8.75;100.00;99520.78;5064564;28;20325;-86
2023/08/09 05:42:00;;;;;;;;;;;;;;;8.73;100.00;99520.84;5074030;28;19923;-85
2023/08/09 05:44:25;;;;;;;;;;;;;;;8.77;100.00;99526.00;5056036;28;19943;-86
2023/08/09 05:46:51;;;;;;;;;;;;;;;8.71;100.00;99527.09;5049465;28;19963;-87
2023/08/09 05:49:16;;;;;;;;;;;;;;;8.80;100.00;99531.16;5072741;28;20014;-85
2023/08/09 05:51:41;;;;;;;;;;;;;;;8.83;100.00;99518.69;5063969;28;19917;-85
2023/08/09 05:54:07;;;;;;;;;;;;;;;8.84;100.00;99520.41;5073857;28;20402;-89
2023/08/09 05:56:32;;;;;;;;;;;;;;;8.90;100.00;99529.88;5063671;28;19917;-89
2023/08/09 05:58:57;;;;;;;;;;;;;;;8.84;100.00;99536.28;5055600;28;19952;-88
2023/08/09 06:01:22;;;;;;;;;;;;;;;8.79;100.00;99532.97;5063707;28;19917;-85
2023/08/09 06:03:48;;;;;;;;;;;;;;;8.80;100.00;99529.38;5072265;28;20427;-84
2023/08/09 06:06:13;;;;;;;;;;;;;;;8.82;100.00;99537.25;5073553;28;19969;-89
2023/08/09 06:08:38;;;;;;;;;;;;;;;8.88;100.00;99529.91;5055514;28;20011;-85
2023/08/09 06:11:04;;;;;;;;;;;;;;;8.83;100.00;99545.09;5063472;28;19916;-84
2023/08/09 06:13:29;;;;;;;;;;;;;;;8.87;100.00;99544.06;5073302;28;19989;-85
2023/08/09 06:15:55;;;;;;;;;;;;;;;8.92;100.00;99538.63;5055566;28;19923;-84
2023/08/09 06:18:20;;;;;;;;;;;;;;;8.82;100.00;99551.34;5048141;28;19970;-83
2023/08/09 06:20:45;;;;;;;;;;;;;;;8.90;100.00;99543.97;5073173;28;19966;-91
2023/08/09 06:23:10;;;;;;;;;;;;;;;8.98;100.00;99540.13;5055441;28;20373;-84
2023/08/09 06:25:36;;;;;;;;;;;;;;;9.00;100.00;99547.09;5055287;28;19940;-90
2023/08/09 06:28:01;;;;;;;;;;;;;;;8.97;100.00;99543.72;5054991;28;19916;-84
2023/08/09 06:30:27;;;;;;;;;;;;;;;9.02;100.00;99550.53;5049129;28;19923;-84
2023/08/09 06:32:53;;;;;;;;;;;;;;;8.91;100.00;99561.50;5072952;28;19955;-86
2023/08/09 06:35:18;;;;;;;;;;;;;;;8.94;100.00;99563.19;5070187;28;20382;-85
2023/08/09 06:37:45;;;;;;;;;;;;;;;9.05;100.00;99570.69;5053881;28;19916;-86
2023/08/09 06:40:11;;;;;;;;;;;;;;;8.98;100.00;99567.41;5054896;28;19970;-84
2023/08/09 06:42:36;;;;;;;;;;;;;;;8.99;100.00;99573.56;5062709;28;19963;-84
2023/08/09 06:45:03;;;;;;;;;;;;;;;8.85;100.00;99579.41;5072757;28;19920;-88
2023/08/09 06:47:28;;;;;;;;;;;;;;;8.88;100.00;99572.19;5053001;28;19946;-84
2023/08/09 06:49:54;;;;;;;;;;;;;;;8.95;100.00;99571.97;5061773;28;20360;-91
2023/08/09 06:52:19;;;;;;;;;;;;;;;8.83;100.00;99576.81;5063148;28;19924;-86
2023/08/09 06:54:44;;;;;;;;;;;;;;;8.90;100.00;99578.31;5072588;28;19916;-86
2023/08/09 06:57:09;;;;;;;;;;;;;;;8.86;100.00;99571.41;5054597;28;19975;-85
2023/08/09 06:59:35;;;;;;;;;;;;;;;8.93;100.00;99571.16;5048342;28;19966;-85
2023/08/09 07:02:00;;;;;;;;;;;;;;;9.01;100.00;99575.22;5072624;28;19967;-84
2023/08/09 07:04:26;;;;;;;;;;;;;;;8.89;100.00;99571.28;5053156;28;19916;-85
2023/08/09 07:06:52;;;;;;;;;;;;;;;8.95;100.00;99570.19;5054451;28;19916;-85
2023/08/09 07:09:18;;;;;;;;;;;;;;;8.97;100.00;99573.63;5062720;28;20360;-89
2023/08/09 07:53:02;;;;;;;;;;;;;;;8.88;100.00;99610.97;5417255;22;19929;-87
2023/08/09 07:55:28;;;;;;;;;;;;;;;11.77;100.00;99620.28;5014577;28;19929;-92
2023/08/09 07:57:56;;;;;;;;;;;;;;;17.21;100.00;99589.56;5015206;28;19928;-92
2023/08/09 08:00:41;;;;;;;;;;;;;;;18.65;100.00;99594.75;5022688;28;19924;-91
2023/08/09 08:03:06;;;;;;;;;;;;;;;16.48;100.00;99603.72;5015098;28;19921;-91
2023/08/09 08:05:32;;;;;;;;;;;;;;;14.13;100.00;99623.34;5014473;28;20427;-88
2023/08/09 08:07:57;;;;;;;;;;;;;;;12.23;100.00;99636.56;5030445;28;20375;-84
2023/08/09 08:10:23;;;;;;;;;;;;;;;11.45;100.00;99646.63;5031240;28;19975;-88
2023/08/09 08:12:49;;;;;;;;;;;;;;;11.15;100.00;99641.00;5031623;28;19927;-88
2023/08/09 08:15:15;;;;;;;;;;;;;;;10.93;100.00;99651.75;5031840;28;19988;-88
2023/08/09 08:17:41;;;;;;;;;;;;;;;10.73;100.00;99654.38;5034142;28;19928;-90
2023/08/09 08:20:10;;;;;;;;;;;;;;;10.58;100.00;99648.94;5014232;28;19917;-88
2023/08/09 08:22:35;;;;;;;;;;;;;;;10.48;100.00;99662.59;5012516;28;19921;-89
2023/08/09 08:25:01;;;;;;;;;;;;;;;10.42;100.00;99667.28;5031516;28;19921;-88
2023/08/09 08:27:26;;;;;;;;;;;;;;;10.34;100.00;99668.50;5013078;28;19917;-89
2023/08/09 08:29:55;;;;;;;;;;;;;;;10.26;100.00;99657.34;5031406;28;20422;-88
2023/08/09 08:32:21;;;;;;;;;;;;;;;10.21;100.00;99654.06;5031643;28;19917;-89
2023/08/09 08:34:46;;;;;;;;;;;;;;;10.17;100.00;99665.69;5013741;28;19924;-90
2023/08/09 08:37:12;;;;;;;;;;;;;;;10.18;100.00;99670.06;5030247;28;19929;-90
2023/08/09 08:39:38;;;;;;;;;;;;;;;10.11;100.00;99663.31;5012227;28;19921;-90
2023/08/09 08:42:03;;;;;;;;;;;;;;;10.05;100.00;99669.75;5013700;28;20383;-89
2023/08/09 08:44:29;;;;;;;;;;;;;;;10.05;100.00;99669.75;5031467;28;20308;-88
2023/08/09 08:46:54;;;;;;;;;;;;;;;10.05;100.00;99668.84;5012808;28;20360;-88
2023/08/09 08:49:23;;;;;;;;;;;;;;;10.02;100.00;99661.03;5013696;28;19921;-89
2023/08/09 08:51:49;;;;;;;;;;;;;;;9.97;100.00;99669.19;5012609;28;19921;-91
2023/08/09 08:54:15;;;;;;;;;;;;;;;10.01;100.00;99668.13;5031051;28;19975;-91
2023/08/09 08:56:41;;;;;;;;;;;;;;;9.95;100.00;99669.25;5013395;28;20384;-89
2023/08/09 08:59:06;;;;;;;;;;;;;;;9.99;100.00;99680.59;5021606;28;20000;-87
2023/08/09 09:01:32;;;;;;;;;;;;;;;9.97;100.00;99678.00;5015753;28;19921;-89
2023/08/09 09:03:57;;;;;;;;;;;;;;;9.89;100.00;99674.81;5034771;28;20426;-89
2023/08/09 09:06:23;;;;;;;;;;;;;;;9.94;100.00;99680.78;5033569;28;19917;-89
2023/08/09 09:08:53;;;;;;;;;;;;;;;9.98;100.00;99689.44;5034550;28;19963;-89
2023/08/09 09:11:19;;;;;;;;;;;;;;;9.91;100.00;99688.00;5017411;28;19924;-89
2023/08/09 09:13:48;;;;;;;;;;;;;;;9.94;100.00;99694.00;5034401;28;19917;-90
2023/08/09 09:16:14;;;;;;;;;;;;;;;9.94;100.00;99691.38;5024189;28;19927;-89
2023/08/09 09:18:41;;;;;;;;;;;;;;;9.93;100.00;99694.06;5034431;28;19917;-89
2023/08/09 09:21:09;;;;;;;;;;;;;;;9.93;100.00;99686.97;5016596;28;19917;-89
2023/08/09 09:23:35;;;;;;;;;;;;;;;9.88;100.00;99683.69;5015359;28;20012;-86
2023/08/09 09:26:06;;;;;;;;;;;;;;;9.93;100.00;99684.34;5032984;28;20363;-89
2023/08/09 09:28:38;;;;;;;;;;;;;;;9.98;100.00;99681.50;5023262;28;19917;-89
2023/08/09 09:31:03;;;;;;;;;;;;;;;9.89;100.00;99679.22;5024027;28;19923;-89
2023/08/09 09:33:35;;;;;;;;;;;;;;;9.94;100.00;99680.78;5025038;28;19917;-89
2023/08/09 09:36:11;;;;;;;;;;;;;;;9.98;100.00;99687.63;5016309;28;20011;-90
2023/08/09 09:38:36;;;;;;;;;;;;;;;9.98;100.00;99685.00;5014272;28;19925;-90
2023/08/09 09:41:02;;;;;;;;;;;;;;;9.97;100.00;99682.41;5023897;28;20288;-89
2023/08/09 09:46:00;;;;;;;;;;;;;;;10.03;100.00;99691.91;5061531;23;20023;-88
2023/08/09 09:48:26;;;;;;;;;;;;;;;9.95;100.00;99685.13;5054293;28;20237;-87
2023/08/09 09:50:52;;;;;;;;;;;;;;;9.93;100.00;99688.78;5051190;28;19921;-90
2023/08/09 09:53:17;;;;;;;;;;;;;;;9.97;100.00;99688.59;5044444;28;19943;-90
2023/08/09 09:55:46;;;;;;;;;;;;;;;10.01;100.00;99681.38;5063094;28;19917;-90
2023/08/09 09:58:32;;;;;;;;;;;;;;;9.95;100.00;99674.53;5045708;28;19960;-91
2023/08/09 10:00:57;;;;;;;;;;;;;;;9.93;100.00;99671.09;5043662;28;20007;-89
2023/08/09 10:03:25;;;;;;;;;;;;;;;9.88;100.00;99673.09;5062439;28;19992;-89
2023/08/09 10:05:54;;;;;;;;;;;;;;;9.89;100.00;99677.47;5040973;28;20097;-88
2023/08/09 10:08:24;;;;;;;;;;;;;;;9.87;100.00;99675.78;5059649;28;19927;-90
2023/08/09 10:10:54;;;;;;;;;;;;;;;9.94;100.00;99672.84;5063434;28;19959;-89
2023/08/09 10:13:25;;;;;;;;;;;;;;;9.89;100.00;99680.13;5062379;28;19921;-90
2023/08/09 10:15:56;;;;;;;;;;;;;;;9.93;100.00;99686.13;5062539;28;19955;-89
2023/08/09 10:18:27;;;;;;;;;;;;;;;9.85;100.00;99683.81;5060788;28;19952;-87
2023/08/09 10:20:55;;;;;;;;;;;;;;;9.94;100.00;99696.66;5062740;28;19922;-89
2023/08/09 10:23:29;;;;;;;;;;;;;;;9.86;100.00;99690.81;5062130;28;20371;-90
2023/08/09 10:25:55;;;;;;;;;;;;;;;9.86;100.00;99690.81;5061650;28;19948;-89
2023/08/09 10:28:45;;;;;;;;;;;;;;;9.96;100.00;99686.84;5045178;28;19955;-89
2023/08/09 10:31:13;;;;;;;;;;;;;;;9.91;100.00;99690.63;5063105;28;19947;-90
2023/08/09 10:33:41;;;;;;;;;;;;;;;9.91;100.00;99691.50;5062664;28;20488;-90
2023/08/09 10:36:10;;;;;;;;;;;;;;;9.91;100.00;99691.50;5062756;28;19920;-90
2023/08/09 10:38:35;;;;;;;;;;;;;;;9.90;100.00;99688.91;5043316;28;20292;-89
2023/08/09 10:41:07;;;;;;;;;;;;;;;9.84;100.00;99692.66;5062529;28;20007;-89
2023/08/09 10:43:33;;;;;;;;;;;;;;;9.93;100.00;99692.28;5062648;28;20375;-90
2023/08/09 10:46:16;;;;;;;;;;;;;;;9.98;100.00;99689.44;5062220;28;20015;-90
2023/08/09 10:48:48;;;;;;;;;;;;;;;9.91;100.00;99694.13;5044606;28;20375;-87
2023/08/09 10:51:13;;;;;;;;;;;;;;;9.90;100.00;99689.75;5049218;28;20396;-88
2023/08/09 10:53:57;;;;;;;;;;;;;;;9.94;100.00;99686.06;5044650;28;19921;-89
2023/08/09 10:56:41;;;;;;;;;;;;;;;9.97;100.00;99683.28;5044918;28;19917;-90
2023/08/09 10:59:13;;;;;;;;;;;;;;;9.91;100.00;99688.84;5044866;28;20450;-87
2023/08/09 11:01:38;;;;;;;;;;;;;;;9.94;100.00;99698.41;5061959;28;19916;-90
2023/08/09 11:04:06;;;;;;;;;;;;;;;9.99;100.00;99699.97;5045357;28;19963;-87
2023/08/09 11:06:34;;;;;;;;;;;;;;;9.98;100.00;99703.53;5043542;28;20069;-89
2023/08/09 11:09:16;;;;;;;;;;;;;;;10.03;100.00;99703.34;5061882;28;20272;-91
2023/08/09 11:11:42;;;;;;;;;;;;;;;10.04;100.00;99699.78;5044928;28;19916;-86
2023/08/09 11:14:08;;;;;;;;;;;;;;;10.10;100.00;99696.00;5062255;28;19921;-88
2023/08/09 11:19:39;;;;;;;;;;;;;;;10.00;100.00;99700.81;5029646;28;20367;-88
2023/08/09 11:22:05;;;;;;;;;;;;;;;9.98;100.00;99706.16;5043108;28;19917;-88
2023/08/09 11:24:30;;;;;;;;;;;;;;;10.06;100.00;99697.91;5043638;28;19923;-89
2023/08/09 11:26:56;;;;;;;;;;;;;;;10.02;100.00;99696.34;5044206;28;19916;-89
2023/08/09 11:29:25;;;;;;;;;;;;;;;9.95;100.00;99695.72;5061619;28;19927;-90
2023/08/09 11:31:53;;;;;;;;;;;;;;;9.96;100.00;99708.03;5043073;28;19917;-90
2023/08/09 11:34:18;;;;;;;;;;;;;;;10.00;100.00;99707.00;5060719;28;19927;-89
2023/08/09 11:36:45;;;;;;;;;;;;;;;9.99;100.00;99707.91;5061229;28;20430;-88
2023/08/09 11:39:11;;;;;;;;;;;;;;;10.04;100.00;99691.84;5042791;28;19924;-92
2023/08/09 11:41:46;;;;;;;;;;;;;;;9.98;100.00;99694.72;5061843;28;20290;-88
2023/08/09 11:44:16;;;;;;;;;;;;;;;10.00;100.00;99706.09;5043483;28;19928;-88
2023/08/09 11:46:45;;;;;;;;;;;;;;;9.98;100.00;99700.88;5042649;28;19952;-91
2023/08/09 11:49:11;;;;;;;;;;;;;;;10.02;100.00;99704.28;5044661;28;19921;-90
2023/08/09 11:51:38;;;;;;;;;;;;;;;10.08;100.00;99705.78;5042721;28;20342;-89
2023/08/09 11:54:07;;;;;;;;;;;;;;;10.11;100.00;99710.97;5043866;28;19967;-88
2023/08/09 11:56:33;;;;;;;;;;;;;;;10.05;100.00;99705.91;5062194;28;19920;-92
2023/08/09 11:58:59;;;;;;;;;;;;;;;10.06;100.00;99705.00;5043824;28;19971;-88
2023/08/09 12:01:26;;;;;;;;;;;;;;;10.01;100.00;99710.50;5061826;28;19935;-88
2023/08/09 12:03:55;;;;;;;;;;;;;;;10.05;100.00;99701.50;5062343;28;19917;-91
2023/08/09 12:06:37;;;;;;;;;;;;;;;10.08;100.00;99701.34;5139053;22;20054;-92
2023/08/09 12:09:22;;;;;;;;;;;;;;;10.01;100.00;99705.19;5060703;28;19924;-91
2023/08/09 12:11:48;;;;;;;;;;;;;;;10.12;100.00;99702.09;5040523;28;20015;-88
2023/08/09 12:14:19;;;;;;;;;;;;;;;9.99;100.00;99702.63;5071718;28;19999;-92
2023/08/09 12:16:44;;;;;;;;;;;;;;;10.05;100.00;99705.91;5070335;28;19998;-89
2023/08/09 12:19:18;;;;;;;;;;;;;;;10.06;100.00;99705.00;5053513;28;19967;-92
2023/08/09 12:22:16;;;;;;;;;;;;;;;;;;;;;
2023/08/09 12:24:42;;;;;;;;;;;;;;;10.01;100.00;99707.84;5072952;28;19939;-94
2023/08/09 12:27:29;;;;;;;;;;;;;;;10.08;100.00;99713.72;5073238;28;20369;-93
2023/08/09 12:29:57;;;;;;;;;;;;;;;10.05;100.00;99703.28;5052039;28;19973;-88
2023/08/09 12:32:23;;;;;;;;;;;;;;;10.08;100.00;99704.00;5071750;28;20372;-91
2023/08/09 12:34:49;;;;;;;;;;;;;;;10.05;100.00;99698.88;5071658;28;19920;-91
2023/08/09 12:45:19;;;;;;;;;;;;;;;10.11;100.00;99700.38;5081871;22;19947;-88
2023/08/09 12:47:45;;;;;;;;;;;;;;;10.13;100.00;99704.69;5057115;28;20533;-90
2023/08/09 12:50:11;;;;;;;;;;;;;;;10.14;100.00;99705.53;5074857;28;19920;-89
2023/08/09 12:52:36;;;;;;;;;;;;;;;10.17;100.00;99705.41;5055721;28;20405;-89
2023/08/09 12:55:01;;;;;;;;;;;;;;;10.13;100.00;99709.09;5074901;28;19916;-90
2023/08/09 12:57:26;;;;;;;;;;;;;;;10.14;100.00;99710.84;5066101;28;19916;-90
2023/08/09 12:59:52;;;;;;;;;;;;;;;10.14;100.00;99705.53;5056962;28;20371;-90
2023/08/09 13:02:17;;;;;;;;;;;;;;;10.17;100.00;99700.13;5074696;28;20314;-88
2023/08/09 13:04:42;;;;;;;;;;;;;;;10.13;100.00;99709.09;5074582;28;19916;-89
2023/08/09 13:07:08;;;;;;;;;;;;;;;10.13;100.00;99714.41;5073594;28;20005;-89
2023/08/09 13:09:35;;;;;;;;;;;;;;;10.18;100.00;99709.78;5074629;28;20368;-90
2023/08/09 13:12:05;;;;;;;;;;;;;;;10.18;100.00;99707.16;5074806;28;19966;-90
2023/08/09 13:14:32;;;;;;;;;;;;;;;10.18;100.00;99712.44;5056712;28;19916;-90
2023/08/09 13:16:58;;;;;;;;;;;;;;;10.15;100.00;99713.41;5054911;28;20363;-90
2023/08/09 13:19:23;;;;;;;;;;;;;;;10.15;100.00;99712.56;5074682;28;20019;-93
2023/08/09 13:21:48;;;;;;;;;;;;;;;10.14;100.00;99718.78;5055418;28;19986;-93
2023/08/09 13:24:13;;;;;;;;;;;;;;;10.12;100.00;99724.13;5074393;28;19916;-93
2023/08/09 13:26:39;;;;;;;;;;;;;;;10.10;100.00;99725.13;5074744;28;19920;-94
2023/08/09 13:29:04;;;;;;;;;;;;;;;10.09;100.00;99718.13;5056648;28;19916;-93
2023/08/09 13:31:29;;;;;;;;;;;;;;;10.14;100.00;99714.34;5074719;28;19934;-94
2023/08/09 13:36:25;;;;;;;;;;;;;;;10.15;100.00;99720.50;5089764;22;19928;-90
2023/08/09 13:38:51;;;;;;;;;;;;;;;10.13;100.00;99717.03;5056014;28;20482;-91
2023/08/09 13:41:16;;;;;;;;;;;;;;;10.11;100.00;99724.19;5072859;28;20295;-92
2023/08/09 13:43:41;;;;;;;;;;;;;;;10.13;100.00;99725.00;5056254;28;20391;-91
2023/08/09 13:46:07;;;;;;;;;;;;;;;10.19;100.00;99730.03;5055566;28;20093;-91
2023/08/09 13:48:33;;;;;;;;;;;;;;;10.12;100.00;99723.28;5073989;28;19964;-92
2023/08/09 13:50:58;;;;;;;;;;;;;;;10.11;100.00;99718.91;5065638;28;19916;-91
2023/08/09 13:53:25;;;;;;;;;;;;;;;10.12;100.00;99718.84;5054782;28;20263;-90
2023/08/09 13:55:53;;;;;;;;;;;;;;;10.18;100.00;99717.72;5054550;28;19963;-91
2023/08/09 13:58:18;;;;;;;;;;;;;;;10.04;100.00;99725.41;5068916;28;20371;-89
2023/08/09 14:00:44;;;;;;;;;;;;;;;10.22;100.00;99737.84;5069890;28;19982;-89
2023/08/09 14:03:09;;;;;;;;;;;;;;;10.26;100.00;99727.97;5054077;28;19924;-89
2023/08/09 14:05:35;;;;;;;;;;;;;;;10.12;100.00;99731.22;5054847;28;20012;-89
2023/08/09 14:08:00;;;;;;;;;;;;;;;10.09;100.00;99729.56;5046197;28;19916;-89
2023/08/09 14:10:26;;;;;;;;;;;;;;;10.27;100.00;99733.22;5073282;28;19928;-90
2023/08/09 14:12:51;;;;;;;;;;;;;;;10.20;100.00;99731.75;5071818;28;19927;-90
2023/08/09 14:15:17;;;;;;;;;;;;;;;10.25;100.00;99724.47;5073198;28;20378;-90
2023/08/09 14:17:43;;;;;;;;;;;;;;;10.35;100.00;99723.22;5059721;28;20368;-92
2023/08/09 14:20:12;;;;;;;;;;;;;;;10.45;100.00;99725.44;5042991;28;19924;-90
2023/08/09 14:22:37;;;;;;;;;;;;;;;10.39;100.00;99731.00;5057840;28;19924;-90
2023/08/09 14:25:02;;;;;;;;;;;;;;;10.34;100.00;99737.38;5066422;28;19927;-88
2023/08/09 14:27:28;;;;;;;;;;;;;;;10.24;100.00;99730.69;5067059;28;20400;-91
2023/08/09 14:29:53;;;;;;;;;;;;;;;10.42;100.00;99737.03;5043934;28;19920;-90
2023/08/09 14:32:19;;;;;;;;;;;;;;;10.33;100.00;99746.22;5048960;28;19921;-87
2023/08/09 14:34:44;;;;;;;;;;;;;;;10.43;100.00;99751.13;5065312;28;20484;-89
2023/08/09 14:37:10;;;;;;;;;;;;;;;10.33;100.00;99754.16;5043298;28;20019;-90
2023/08/09 14:39:38;;;;;;;;;;;;;;;10.37;100.00;99749.63;5071816;28;19925;-91
2023/08/09 14:42:03;;;;;;;;;;;;;;;10.34;100.00;99745.31;5066809;28;20010;-91
2023/08/09 14:44:29;;;;;;;;;;;;;;;10.35;100.00;99752.34;5066384;28;20023;-90
2023/08/09 14:46:54;;;;;;;;;;;;;;;10.36;100.00;99748.75;5055024;28;20352;-91
2023/08/09 14:49:20;;;;;;;;;;;;;;;10.31;100.00;99745.41;5047374;28;19931;-91
2023/08/09 14:51:45;;;;;;;;;;;;;;;10.31;100.00;99734.81;5060708;28;19921;-90
2023/08/09 14:54:10;;;;;;;;;;;;;;;10.25;100.00;99740.38;5071680;28;20343;-90
2023/08/09 14:56:38;;;;;;;;;;;;;;;10.29;100.00;99736.69;5067239;28;19932;-90
2023/08/09 14:59:03;;;;;;;;;;;;;;;10.33;100.00;99740.94;5046544;28;20275;-89
2023/08/09 15:01:30;;;;;;;;;;;;;;;10.30;100.00;99738.38;5045095;28;19920;-90
2023/08/09 15:03:55;;;;;;;;;;;;;;;10.27;100.00;99742.94;5046363;28;20393;-89
2023/08/09 15:06:22;;;;;;;;;;;;;;;10.30;100.00;99743.66;5069407;28;20007;-87
2023/08/09 15:08:50;;;;;;;;;;;;;;;10.26;100.00;99738.56;5071357;28;20287;-90
2023/08/09 15:11:16;;;;;;;;;;;;;;;10.34;100.00;99742.66;5048408;28;20330;-87
2023/08/09 15:13:43;;;;;;;;;;;;;;;10.34;100.00;99741.81;5055513;28;19970;-88
2023/08/09 15:16:09;;;;;;;;;;;;;;;10.27;100.00;99740.31;5046598;28;20380;-90
2023/08/09 15:18:34;;;;;;;;;;;;;;;10.33;100.00;99740.06;5064928;28;19959;-88
2023/08/09 15:21:06;;;;;;;;;;;;;;;10.28;100.00;99742.88;5059985;28;20008;-94
2023/08/09 15:23:33;;;;;;;;;;;;;;;10.33;100.00;99746.22;5069553;28;19985;-89
2023/08/09 15:25:58;;;;;;;;;;;;;;;10.31;100.00;99745.41;5072109;28;19923;-90
2023/08/09 15:28:26;;;;;;;;;;;;;;;10.33;100.00;99743.56;5064088;28;19920;-87
2023/08/09 15:30:55;;;;;;;;;;;;;;;10.27;100.00;99738.50;5062545;28;19920;-93
2023/08/09 15:33:20;;;;;;;;;;;;;;;10.38;100.00;99735.44;5063883;28;20394;-90
2023/08/09 15:35:45;;;;;;;;;;;;;;;10.28;100.00;99748.19;5051004;28;20015;-90
2023/08/09 15:38:22;;;;;;;;;;;;;;;10.27;100.00;99750.91;5056893;28;19966;-94
2023/08/09 15:40:48;;;;;;;;;;;;;;;10.28;100.00;99744.69;5050358;28;19924;-90
2023/08/09 15:43:16;;;;;;;;;;;;;;;10.30;100.00;99743.66;5051435;28;19920;-89
2023/08/09 15:45:43;;;;;;;;;;;;;;;10.26;100.00;99750.03;5051772;28;19921;-91
2023/08/09 15:48:09;;;;;;;;;;;;;;;10.48;100.00;99746.50;5045390;28;20379;-90
2023/08/09 15:50:36;;;;;;;;;;;;;;;10.36;100.00;99743.44;5048161;28;19921;-92
2023/08/09 15:53:01;;;;;;;;;;;;;;;10.36;100.00;99746.09;5046338;28;19924;-91
2023/08/09 15:55:29;;;;;;;;;;;;;;;10.33;100.00;99745.38;5053991;28;19935;-90
2023/08/09 15:57:54;;;;;;;;;;;;;;;10.32;100.00;99744.53;5058446;28;19920;-89
2023/08/09 16:00:20;;;;;;;;;;;;;;;10.38;100.00;99739.88;5049059;28;20284;-90
2023/08/09 16:02:45;;;;;;;;;;;;;;;10.27;100.00;99742.94;5045153;28;20253;-91
2023/08/09 16:05:12;;;;;;;;;;;;;;;10.36;100.00;99740.81;5050781;28;19917;-90
2023/08/09 16:07:38;;;;;;;;;;;;;;;10.41;100.00;99745.91;5050101;28;20016;-88
2023/08/09 16:10:03;;;;;;;;;;;;;;;10.35;100.00;99757.63;5052470;28;20022;-89
2023/08/09 16:12:29;;;;;;;;;;;;;;;10.32;100.00;99757.75;5055778;28;20388;-89
2023/08/09 16:14:55;;;;;;;;;;;;;;;10.33;100.00;99764.75;5054943;28;19919;-88
2023/08/09 16:17:20;;;;;;;;;;;;;;;10.39;100.00;99768.06;5055495;28;20016;-90
2023/08/09 16:19:46;;;;;;;;;;;;;;;10.37;100.00;99770.81;5054243;28;19928;-90
2023/08/09 16:22:11;;;;;;;;;;;;;;;10.36;100.00;99772.59;5052762;22;19947;-93
2023/08/09 16:24:37;;;;;;;;;;;;;;;10.45;100.00;99775.75;5048247;28;19917;-92
2023/08/09 16:27:02;;;;;;;;;;;;;;;10.42;100.00;99781.19;5047914;28;19924;-87
2023/08/09 16:29:27;;;;;;;;;;;;;;;10.40;100.00;99777.75;5067058;28;19916;-91
2023/08/09 16:31:54;;;;;;;;;;;;;;;10.40;100.00;99780.41;5065155;28;19917;-89
2023/08/09 16:34:19;;;;;;;;;;;;;;;10.45;100.00;99783.72;5045425;28;19931;-89
2023/08/09 16:36:44;;;;;;;;;;;;;;;10.47;100.00;99776.59;5063476;28;20015;-90
2023/08/09 16:39:09;;;;;;;;;;;;;;;10.40;100.00;99788.34;5066382;28;19917;-87
2023/08/09 16:41:38;;;;;;;;;;;;;;;10.39;100.00;99779.56;5046232;28;19920;-93
2023/08/09 16:44:04;;;;;;;;;;;;;;;10.36;100.00;99775.22;5065169;28;19987;-90
2023/08/09 16:46:29;;;;;;;;;;;;;;;10.46;100.00;99788.09;5043464;28;19946;-85
2023/08/09 16:48:55;;;;;;;;;;;;;;;10.35;100.00;99788.53;5065385;28;19920;-87
2023/08/09 16:51:20;;;;;;;;;;;;;;;10.35;100.00;99781.47;5057751;28;19921;-87
2023/08/09 16:53:54;;;;;;;;;;;;;;;10.34;100.00;99787.69;5048463;28;19916;-94
2023/08/09 16:56:20;;;;;;;;;;;;;;;10.34;100.00;99787.69;5046633;28;19916;-87
2023/08/09 16:58:45;;;;;;;;;;;;;;;10.32;100.00;99791.28;5045815;28;20414;-88
2023/08/09 17:01:14;;;;;;;;;;;;;;;10.36;100.00;99793.78;5064765;28;19916;-89
2023/08/09 17:03:39;;;;;;;;;;;;;;;10.43;100.00;99790.88;5062794;28;19924;-88
2023/08/09 17:06:07;;;;;;;;;;;;;;;10.42;100.00;99795.31;5059646;28;19927;-89
2023/08/09 17:08:32;;;;;;;;;;;;;;;10.35;100.00;99794.72;5043396;28;20034;-92
2023/08/09 17:10:57;;;;;;;;;;;;;;;10.40;100.00;99801.59;5062521;28;20036;-86
2023/08/09 17:13:23;;;;;;;;;;;;;;;10.36;100.00;99800.88;5063371;28;19924;-89
2023/08/09 17:15:48;;;;;;;;;;;;;;;10.45;100.00;99795.19;5046793;28;19921;-85
2023/08/09 17:18:13;;;;;;;;;;;;;;;10.40;100.00;99802.44;5053159;28;19921;-88
2023/08/09 17:20:39;;;;;;;;;;;;;;;10.35;100.00;99797.38;5022773;28;19921;-82
2023/08/09 17:23:07;;;;;;;;;;;;;;;10.32;100.00;99793.94;5025197;28;20431;-89
2023/08/09 17:25:32;;;;;;;;;;;;;;;10.31;100.00;99793.06;5024525;28;20407;-89
2023/08/09 17:27:58;;;;;;;;;;;;;;;10.39;100.00;99794.56;5020297;28;20012;-88
2023/08/09 17:30:23;;;;;;;;;;;;;;;10.33;100.00;99799.19;5021437;28;20008;-89
2023/08/09 17:32:48;;;;;;;;;;;;;;;10.31;100.00;99798.38;5022395;28;19928;-85
2023/08/09 17:35:21;;;;;;;;;;;;;;;10.31;100.00;99811.63;5022255;28;20001;-89
2023/08/09 17:37:50;;;;;;;;;;;;;;;10.33;100.00;99809.78;5022619;28;19921;-89
2023/08/09 17:40:16;;;;;;;;;;;;;;;10.29;100.00;99805.53;5022609;28;19917;-87
2023/08/09 17:42:42;;;;;;;;;;;;;;;10.32;100.00;99809.81;5022408;28;19975;-87
2023/08/09 17:45:08;;;;;;;;;;;;;;;10.28;100.00;99809.09;5022719;28;20364;-84
2023/08/09 17:47:33;;;;;;;;;;;;;;;10.34;100.00;99814.16;5020954;28;19975;-88
2023/08/09 17:49:58;;;;;;;;;;;;;;;10.34;100.00;99824.78;5023408;28;19948;-89
2023/08/09 17:52:26;;;;;;;;;;;;;;;10.25;100.00;99817.16;5017672;28;19925;-85
2023/08/09 17:54:52;;;;;;;;;;;;;;;10.33;100.00;99815.09;5024143;28;20320;-88
2023/08/09 17:57:17;;;;;;;;;;;;;;;10.25;100.00;99825.09;5025691;28;20306;-88
2023/08/09 17:59:42;;;;;;;;;;;;;;;10.27;100.00;99823.25;5024159;28;19929;-89
2023/08/09 18:02:11;;;;;;;;;;;;;;;10.26;100.00;99826.84;5024946;28;20286;-88
2023/08/09 18:04:36;;;;;;;;;;;;;;;10.24;100.00;99823.38;5021815;28;20055;-89
2023/08/09 18:07:09;;;;;;;;;;;;;;;10.21;100.00;99820.00;5021632;28;20376;-89
2023/08/09 18:09:37;;;;;;;;;;;;;;;10.19;100.00;99825.34;5020136;28;19921;-88
2023/08/09 18:12:03;;;;;;;;;;;;;;;10.27;100.00;99814.44;5021519;28;19964;-90
2023/08/09 18:14:31;;;;;;;;;;;;;;;10.27;100.00;99822.41;5037230;28;20390;-89
2023/08/09 18:16:56;;;;;;;;;;;;;;;10.23;100.00;99812.84;5020712;28;19917;-91
2023/08/09 18:19:21;;;;;;;;;;;;;;;10.22;100.00;99806.69;5024514;28;19932;-91
2023/08/09 18:21:47;;;;;;;;;;;;;;;10.23;100.00;99813.72;5016314;28;20300;-91
2023/08/09 18:24:12;;;;;;;;;;;;;;;10.22;100.00;99814.63;5022631;28;19921;-89
2023/08/09 18:26:37;;;;;;;;;;;;;;;10.22;100.00;99814.63;5018559;28;20429;-89
2023/08/09 18:29:03;;;;;;;;;;;;;;;10.20;100.00;99813.84;5020829;28;20012;-91
2023/08/09 18:31:29;;;;;;;;;;;;;;;10.15;100.00;99821.13;5021753;28;19959;-91
2023/08/09 18:33:57;;;;;;;;;;;;;;;10.21;100.00;99833.22;5022897;28;19924;-92
2023/08/09 18:36:22;;;;;;;;;;;;;;;10.22;100.00;99833.16;5020197;28;19918;-90
2023/08/09 18:38:48;;;;;;;;;;;;;;;10.61;100.00;99836.91;5025301;28;20024;-90
2023/08/09 18:41:13;;;;;;;;;;;;;;;10.38;100.00;99836.09;5022636;28;19965;-88
2023/08/09 18:43:39;;;;;;;;;;;;;;;10.21;100.00;99842.06;5024404;28;20430;-92
2023/08/09 18:46:07;;;;;;;;;;;;;;;10.16;100.00;99842.25;5024868;28;19928;-89
2023/08/09 18:48:35;;;;;;;;;;;;;;;10.11;100.00;99849.47;5021152;28;19917;-92
2023/08/09 18:51:04;;;;;;;;;;;;;;;10.20;100.00;99852.72;5024413;28;19913;-85
2023/08/09 18:53:32;;;;;;;;;;;;;;;10.13;100.00;99855.59;5020992;28;19924;-89
2023/08/09 18:55:57;;;;;;;;;;;;;;;10.17;100.00;99858.97;5022008;28;19921;-88